Time;durP1;ratioP1;P1;durP2;ratioP2;P2;SDS_P1;SDS_P2;PMS_P1;PMS_P2;Temp;Humidity;BMP_temperature;BMP_pressure;BME280_temperature;BME280_humidity;BME280_pressure;Samples;Min_cycle;Max_cycle;Signal;HPM_P1;HPM_P2
2024/01/28 00:01:39;;;;;;;9.05;4.55;;;;;;;;;;4963350;28;98873;-80
2024/01/28 00:04:05;;;;;;;8.32;3.97;;;;;;;;;;4951995;28;99448;-80
2024/01/28 00:06:32;;;;;;;9.27;3.88;;;;;;;;;;4944326;28;98700;-80
2024/01/28 00:08:59;;;;;;;8.82;4.28;;;;;;;;;;4947923;28;98758;-80
2024/01/28 00:11:25;;;;;;;10.85;4.50;;;;;;;;;;4947302;28;99714;-80
2024/01/28 00:13:52;;;;;;;9.55;4.00;;;;;;;;;;4946786;28;99335;-80
2024/01/28 00:16:19;;;;;;;10.02;4.18;;;;;;;;;;4947459;28;99566;-79
2024/01/28 00:18:46;;;;;;;11.73;4.35;;;;;;;;;;4946927;28;99209;-81
2024/01/28 00:21:12;;;;;;;10.02;4.07;;;;;;;;;;4946392;28;99006;-78
2024/01/28 00:23:39;;;;;;;9.52;4.10;;;;;;;;;;4946278;28;98988;-79
2024/01/28 00:26:07;;;;;;;11.27;4.68;;;;;;;;;;4947807;28;99665;-78
2024/01/28 00:28:33;;;;;;;9.02;3.97;;;;;;;;;;4929889;28;99145;-78
2024/01/28 00:31:00;;;;;;;12.15;4.15;;;;;;;;;;4937027;28;98430;-77
2024/01/28 00:33:26;;;;;;;8.98;4.15;;;;;;;;;;4947151;28;98984;-78
2024/01/28 00:35:53;;;;;;;10.45;4.18;;;;;;;;;;4946939;28;98681;-78
2024/01/28 00:38:20;;;;;;;9.52;4.07;;;;;;;;;;4951017;28;100097;-78
2024/01/28 00:40:47;;;;;;;8.15;4.03;;;;;;;;;;4961416;28;99623;-79
2024/01/28 00:43:13;;;;;;;9.27;4.00;;;;;;;;;;4947224;28;98948;-80
2024/01/28 00:45:40;;;;;;;9.88;4.20;;;;;;;;;;4946662;28;99668;-80
2024/01/28 00:48:07;;;;;;;9.88;3.85;;;;;;;;;;4947338;28;98745;-79
2024/01/28 00:50:34;;;;;;;8.38;4.25;;;;;;;;;;4949484;28;98907;-80
2024/01/28 00:53:01;;;;;;;10.18;4.32;;;;;;;;;;4929772;28;98942;-79
2024/01/28 00:55:28;;;;;;;9.65;3.97;;;;;;;;;;4947692;28;98825;-79
2024/01/28 00:57:55;;;;;;;;;;;;;;;;;;4949542;28;99361;-79
2024/01/28 01:00:21;;;;;;;9.75;3.97;;;;;;;;;;4952045;28;98884;-79
2024/01/28 01:02:48;;;;;;;8.27;4.45;;;;;;;;;;4949675;28;99561;-79
2024/01/28 01:05:15;;;;;;;8.77;4.20;;;;;;;;;;4932790;28;100184;-79
2024/01/28 01:07:41;;;;;;;9.10;3.97;;;;;;;;;;4931922;28;98593;-79
2024/01/28 01:10:08;;;;;;;8.63;3.85;;;;;;;;;;4948325;28;98812;-79
2024/01/28 01:12:35;;;;;;;8.55;3.88;;;;;;;;;;4933450;28;105948;-79
2024/01/28 01:15:03;;;;;;;9.15;3.95;;;;;;;;;;4947235;28;98782;-79
2024/01/28 01:17:29;;;;;;;9.00;4.25;;;;;;;;;;4945531;28;100679;-79
2024/01/28 01:19:56;;;;;;;9.00;4.30;;;;;;;;;;4947689;28;98238;-79
2024/01/28 01:22:22;;;;;;;8.57;3.97;;;;;;;;;;4946571;28;98932;-78
2024/01/28 01:24:49;;;;;;;11.23;3.88;;;;;;;;;;4945350;28;99762;-78
2024/01/28 01:27:15;;;;;;;9.15;3.90;;;;;;;;;;4946188;28;99305;-78
2024/01/28 01:29:42;;;;;;;14.32;4.65;;;;;;;;;;4947019;28;99567;-78
2024/01/28 01:32:10;;;;;;;11.10;4.03;;;;;;;;;;4946053;28;99456;-78
2024/01/28 01:34:37;;;;;;;10.57;3.92;;;;;;;;;;4952007;28;98569;-78
2024/01/28 01:37:04;;;;;;;9.52;3.78;;;;;;;;;;4960090;28;99268;-78
2024/01/28 01:39:30;;;;;;;8.32;3.83;;;;;;;;;;4960128;28;99041;-78
2024/01/28 01:41:57;;;;;;;8.48;3.50;;;;;;;;;;4969848;28;99260;-78
2024/01/28 01:44:24;;;;;;;8.57;3.92;;;;;;;;;;4951946;28;98431;-78
2024/01/28 01:46:51;;;;;;;8.07;3.83;;;;;;;;;;4950891;28;99229;-78
2024/01/28 01:49:17;;;;;;;8.20;3.70;;;;;;;;;;4969759;28;99029;-78
2024/01/28 01:51:44;;;;;;;9.27;4.10;;;;;;;;;;4958220;28;100515;-78
2024/01/28 01:54:11;;;;;;;8.63;4.03;;;;;;;;;;4953329;28;99021;-79
2024/01/28 01:56:38;;;;;;;9.65;4.35;;;;;;;;;;4947961;28;99467;-78
2024/01/28 01:59:04;;;;;;;9.65;4.00;;;;;;;;;;4949448;28;99022;-79
2024/01/28 02:01:31;;;;;;;8.40;3.53;;;;;;;;;;4949890;28;98817;-79
2024/01/28 02:03:58;;;;;;;8.88;4.03;;;;;;;;;;4949313;28;98978;-79
2024/01/28 02:06:27;;;;;;;12.85;3.95;;;;;;;;;;4949160;28;100038;-79
2024/01/28 02:08:54;;;;;;;11.77;4.10;;;;;;;;;;4949414;28;98957;-79
2024/01/28 02:11:21;;;;;;;11.63;4.10;;;;;;;;;;4949415;28;99741;-79
2024/01/28 02:13:48;;;;;;;9.60;3.88;;;;;;;;;;4949640;28;98858;-79
2024/01/28 02:16:15;;;;;;;8.52;3.58;;;;;;;;;;4951092;28;101519;-79
2024/01/28 02:18:42;;;;;;;9.38;3.90;;;;;;;;;;4948965;28;98914;-79
2024/01/28 02:21:09;;;;;;;15.45;3.83;;;;;;;;;;4949584;28;98762;-79
2024/01/28 02:23:35;;;;;;;8.13;3.50;;;;;;;;;;4949270;28;100309;-79
2024/01/28 02:26:02;;;;;;;8.63;3.78;;;;;;;;;;4949908;28;99149;-79
2024/01/28 02:28:28;;;;;;;10.00;3.85;;;;;;;;;;4950095;28;99119;-79
2024/01/28 02:30:55;;;;;;;8.55;3.53;;;;;;;;;;4948121;28;99157;-78
2024/01/28 02:33:21;;;;;;;9.10;3.67;;;;;;;;;;4949454;28;97806;-79
2024/01/28 02:35:48;;;;;;;9.85;4.00;;;;;;;;;;4948697;28;99152;-79
2024/01/28 02:38:14;;;;;;;8.82;3.72;;;;;;;;;;4951307;28;99085;-79
2024/01/28 02:40:41;;;;;;;8.65;3.50;;;;;;;;;;4960731;28;100800;-79
2024/01/28 02:43:07;;;;;;;9.13;3.50;;;;;;;;;;4968364;28;99285;-79
2024/01/28 02:45:34;;;;;;;10.27;3.70;;;;;;;;;;4967963;28;98921;-79
2024/01/28 02:48:01;;;;;;;8.25;3.40;;;;;;;;;;4958526;28;98897;-78
2024/01/28 02:50:27;;;;;;;8.75;3.83;;;;;;;;;;4948825;28;99505;-79
2024/01/28 02:52:54;;;;;;;8.25;3.60;;;;;;;;;;4946883;28;98677;-79
2024/01/28 02:55:20;;;;;;;8.27;3.83;;;;;;;;;;4948667;28;100661;-79
2024/01/28 02:57:47;;;;;;;8.25;3.30;;;;;;;;;;4947907;28;99754;-79
2024/01/28 03:00:14;;;;;;;8.80;3.35;;;;;;;;;;4952156;28;98521;-79
2024/01/28 03:02:40;;;;;;;7.38;3.03;;;;;;;;;;4948164;28;100022;-79
2024/01/28 03:05:10;;;;;;;11.00;3.00;;;;;;;;;;4948186;28;99784;-78
2024/01/28 03:07:38;;;;;;;8.68;3.17;;;;;;;;;;4949167;28;99450;-80
2024/01/28 03:10:05;;;;;;;7.97;2.88;;;;;;;;;;4948298;28;99593;-79
2024/01/28 03:12:31;;;;;;;7.35;2.90;;;;;;;;;;4948091;28;99116;-78
2024/01/28 03:14:58;;;;;;;6.68;3.13;;;;;;;;;;4930696;28;100322;-78
2024/01/28 03:17:24;;;;;;;8.38;3.00;;;;;;;;;;4948079;28;99054;-78
2024/01/28 03:19:51;;;;;;;6.57;2.67;;;;;;;;;;4931767;28;99476;-78
2024/01/28 03:22:17;;;;;;;7.90;3.05;;;;;;;;;;4951441;28;99070;-78
2024/01/28 03:24:45;;;;;;;8.55;3.10;;;;;;;;;;4945639;28;98923;-78
2024/01/28 03:27:12;;;;;;;8.30;3.00;;;;;;;;;;4948407;28;98491;-78
2024/01/28 03:29:39;;;;;;;7.43;3.05;;;;;;;;;;4947801;28;99978;-79
2024/01/28 03:32:05;;;;;;;7.03;2.83;;;;;;;;;;4967108;28;98681;-78
2024/01/28 03:34:32;;;;;;;6.88;2.97;;;;;;;;;;4946290;28;101553;-78
2024/01/28 03:36:59;;;;;;;8.63;3.30;;;;;;;;;;4947369;28;99256;-77
2024/01/28 03:39:25;;;;;;;10.48;2.95;;;;;;;;;;4943383;28;98968;-78
2024/01/28 03:41:52;;;;;;;8.23;2.90;;;;;;;;;;4970687;28;98865;-77
2024/01/28 03:44:22;;;;;;;16.17;3.15;;;;;;;;;;4957426;28;98473;-78
2024/01/28 03:46:49;;;;;;;8.48;2.90;;;;;;;;;;4947201;28;98944;-80
2024/01/28 03:49:15;;;;;;;17.75;3.25;;;;;;;;;;4947671;28;99302;-79
2024/01/28 03:51:42;;;;;;;9.07;3.15;;;;;;;;;;4947692;28;98982;-78
2024/01/28 03:54:09;;;;;;;8.82;3.33;;;;;;;;;;4947638;28;99591;-78
2024/01/28 03:56:35;;;;;;;7.97;3.20;;;;;;;;;;4951454;28;99081;-77
2024/01/28 03:59:02;;;;;;;9.57;3.33;;;;;;;;;;4951654;28;98634;-79
2024/01/28 04:01:29;;;;;;;8.63;3.33;;;;;;;;;;4947659;28;98640;-77
2024/01/28 04:03:57;;;;;;;9.25;3.10;;;;;;;;;;4950001;28;99010;-78
2024/01/28 04:06:24;;;;;;;7.22;2.92;;;;;;;;;;4947476;28;98880;-78
2024/01/28 04:08:52;;;;;;;7.85;2.70;;;;;;;;;;4946941;28;99036;-78
2024/01/28 04:11:18;;;;;;;9.60;2.97;;;;;;;;;;4930254;28;97851;-77
2024/01/28 04:13:45;;;;;;;8.20;2.90;;;;;;;;;;4947293;28;98974;-77
2024/01/28 04:16:11;;;;;;;10.98;3.15;;;;;;;;;;4947140;28;99352;-77
2024/01/28 04:18:39;;;;;;;9.50;3.13;;;;;;;;;;4945939;28;99339;-79
2024/01/28 04:21:05;;;;;;;7.80;3.05;;;;;;;;;;4947796;28;99557;-77
2024/01/28 04:23:32;;;;;;;7.78;2.92;;;;;;;;;;4947918;28;100068;-77
2024/01/28 04:25:58;;;;;;;7.53;3.00;;;;;;;;;;4951244;28;99084;-79
2024/01/28 04:28:25;;;;;;;8.73;3.10;;;;;;;;;;4948175;28;99690;-79
2024/01/28 04:30:52;;;;;;;8.55;3.15;;;;;;;;;;4947321;28;99095;-77
2024/01/28 04:33:18;;;;;;;7.18;2.95;;;;;;;;;;4947122;28;99099;-77
2024/01/28 04:35:45;;;;;;;8.50;3.00;;;;;;;;;;4959516;28;99040;-79
2024/01/28 04:38:11;;;;;;;9.65;2.90;;;;;;;;;;4962623;28;98492;-77
2024/01/28 04:40:38;;;;;;;7.03;3.00;;;;;;;;;;4946194;28;98883;-79
2024/01/28 04:43:05;;;;;;;7.32;2.92;;;;;;;;;;4946106;28;100000;-77
2024/01/28 04:45:31;;;;;;;7.35;3.00;;;;;;;;;;4947269;28;99089;-79
2024/01/28 04:47:58;;;;;;;6.60;2.47;;;;;;;;;;4949778;28;98801;-78
2024/01/28 04:50:24;;;;;;;7.72;3.00;;;;;;;;;;4947043;28;98743;-79
2024/01/28 04:52:51;;;;;;;8.82;2.97;;;;;;;;;;4946980;28;98851;-79
2024/01/28 04:55:17;;;;;;;8.35;2.88;;;;;;;;;;4946494;28;99148;-79
2024/01/28 04:57:44;;;;;;;6.93;2.70;;;;;;;;;;4946742;28;98888;-80
2024/01/28 05:00:11;;;;;;;10.18;2.97;;;;;;;;;;4958175;28;99034;-80
2024/01/28 05:02:38;;;;;;;10.57;3.10;;;;;;;;;;4965597;28;99293;-78
2024/01/28 05:05:05;;;;;;;9.43;3.50;;;;;;;;;;4966626;28;98505;-78
2024/01/28 05:07:31;;;;;;;9.13;3.10;;;;;;;;;;4965241;28;100055;-79
2024/01/28 05:09:58;;;;;;;7.55;2.75;;;;;;;;;;4950060;28;99087;-79
2024/01/28 05:12:25;;;;;;;8.57;3.05;;;;;;;;;;4946374;28;98926;-79
2024/01/28 05:14:51;;;;;;;9.27;2.85;;;;;;;;;;4946935;28;100604;-79
2024/01/28 05:17:18;;;;;;;6.60;2.63;;;;;;;;;;4948749;28;98944;-79
2024/01/28 05:19:45;;;;;;;9.75;2.92;;;;;;;;;;4950530;28;99660;-77
2024/01/28 05:22:12;;;;;;;8.55;2.92;;;;;;;;;;4949433;28;99304;-77
2024/01/28 05:24:39;;;;;;;7.75;2.67;;;;;;;;;;4932206;28;98163;-77
2024/01/28 05:27:05;;;;;;;8.70;2.67;;;;;;;;;;4951037;28;98956;-77
2024/01/28 05:29:32;;;;;;;7.85;2.75;;;;;;;;;;4953751;28;99797;-79
2024/01/28 05:31:58;;;;;;;8.88;3.10;;;;;;;;;;4973252;28;99777;-80
2024/01/28 05:34:25;;;;;;;8.15;2.72;;;;;;;;;;4971353;28;99369;-78
2024/01/28 05:36:51;;;;;;;11.27;3.15;;;;;;;;;;4953418;28;98714;-78
2024/01/28 05:39:18;;;;;;;14.13;3.33;;;;;;;;;;4952242;28;98986;-78
2024/01/28 05:41:45;;;;;;;13.75;3.35;;;;;;;;;;4949557;28;99328;-78
2024/01/28 05:44:15;;;;;;;9.57;2.72;;;;;;;;;;4949840;28;98843;-78
2024/01/28 05:46:41;;;;;;;9.98;2.83;;;;;;;;;;4949454;28;98841;-78
2024/01/28 05:49:11;;;;;;;9.95;2.92;;;;;;;;;;4950138;28;99263;-78
2024/01/28 05:51:39;;;;;;;9.85;3.08;;;;;;;;;;4968866;28;98756;-78
2024/01/28 05:54:06;;;;;;;13.27;3.00;;;;;;;;;;4968251;28;100406;-78
2024/01/28 05:56:32;;;;;;;10.00;3.28;;;;;;;;;;4969442;28;99864;-78
2024/01/28 05:58:59;;;;;;;7.82;2.72;;;;;;;;;;4970095;28;99639;-78
2024/01/28 06:01:25;;;;;;;7.57;2.78;;;;;;;;;;4935273;28;100539;-81
2024/01/28 06:03:52;;;;;;;11.65;2.67;;;;;;;;;;4951048;28;98828;-79
2024/01/28 06:06:18;;;;;;;9.90;2.80;;;;;;;;;;4948577;28;101594;-78
2024/01/28 06:08:45;;;;;;;12.90;3.10;;;;;;;;;;4947989;28;99100;-79
2024/01/28 06:11:12;;;;;;;8.45;2.70;;;;;;;;;;4958532;28;98555;-78
2024/01/28 06:13:38;;;;;;;10.50;3.17;;;;;;;;;;4972063;28;98867;-79
2024/01/28 06:16:07;;;;;;;6.78;2.80;;;;;;;;;;4969672;28;98505;-79
2024/01/28 06:18:35;;;;;;;7.78;2.63;;;;;;;;;;4962526;28;99188;-78
2024/01/28 06:21:02;;;;;;;9.60;2.90;;;;;;;;;;4933717;28;102605;-79
2024/01/28 06:23:29;;;;;;;10.13;3.38;;;;;;;;;;4951958;28;98822;-78
2024/01/28 06:25:55;;;;;;;7.32;2.90;;;;;;;;;;4953293;28;100017;-79
2024/01/28 06:28:21;;;;;;;9.48;2.75;;;;;;;;;;4933374;28;99267;-79
2024/01/28 06:30:48;;;;;;;6.38;2.53;;;;;;;;;;4956881;28;98813;-79
2024/01/28 06:33:15;;;;;;;11.73;2.70;;;;;;;;;;4957626;28;99067;-79
2024/01/28 06:35:42;;;;;;;9.27;2.78;;;;;;;;;;4952715;28;100171;-79
2024/01/28 06:38:08;;;;;;;7.57;2.65;;;;;;;;;;4945217;28;98895;-79
2024/01/28 06:40:35;;;;;;;7.18;2.90;;;;;;;;;;4957530;28;99742;-80
2024/01/28 06:43:01;;;;;;;13.48;2.80;;;;;;;;;;4948044;28;98778;-80
2024/01/28 06:45:28;;;;;;;7.97;2.63;;;;;;;;;;4948913;28;99458;-79
2024/01/28 06:47:55;;;;;;;10.10;3.25;;;;;;;;;;4948279;28;99196;-79
2024/01/28 06:50:22;;;;;;;7.18;2.63;;;;;;;;;;4949226;28;98784;-79
2024/01/28 06:52:49;;;;;;;13.02;2.90;;;;;;;;;;4948118;28;98928;-79
2024/01/28 06:55:15;;;;;;;10.55;2.90;;;;;;;;;;4931025;28;99069;-80
2024/01/28 06:57:41;;;;;;;6.82;2.90;;;;;;;;;;4952472;28;98512;-78
2024/01/28 07:00:11;;;;;;;7.55;2.78;;;;;;;;;;4949247;28;99823;-79
2024/01/28 07:02:40;;;;;;;8.23;2.92;;;;;;;;;;4948487;28;98147;-79
2024/01/28 07:05:09;;;;;;;7.43;2.90;;;;;;;;;;4931947;28;99462;-79
2024/01/28 07:07:35;;;;;;;7.38;2.92;;;;;;;;;;4948156;28;99235;-79
2024/01/28 07:10:02;;;;;;;7.55;2.83;;;;;;;;;;4948438;28;99246;-80
2024/01/28 07:12:28;;;;;;;8.80;2.80;;;;;;;;;;4948870;28;99438;-80
2024/01/28 07:14:55;;;;;;;9.25;2.72;;;;;;;;;;4947218;28;99661;-78
2024/01/28 07:17:21;;;;;;;8.50;2.53;;;;;;;;;;4948813;28;99252;-79
2024/01/28 07:19:48;;;;;;;11.18;3.20;;;;;;;;;;4951877;28;98872;-79
2024/01/28 07:22:14;;;;;;;11.13;2.70;;;;;;;;;;4948305;28;98766;-78
2024/01/28 07:24:41;;;;;;;7.95;2.55;;;;;;;;;;4948274;28;98887;-78
2024/01/28 07:27:07;;;;;;;8.65;2.85;;;;;;;;;;4948616;28;98318;-79
2024/01/28 07:29:34;;;;;;;7.80;2.75;;;;;;;;;;4947981;28;98551;-79
2024/01/28 07:32:00;;;;;;;8.52;3.17;;;;;;;;;;4948381;28;99125;-78
2024/01/28 07:34:27;;;;;;;10.35;3.03;;;;;;;;;;4949078;28;99938;-78
2024/01/28 07:36:56;;;;;;;8.10;2.70;;;;;;;;;;4967483;28;98631;-79
2024/01/28 07:39:23;;;;;;;8.05;2.90;;;;;;;;;;4953235;28;98815;-79
2024/01/28 07:41:50;;;;;;;7.13;2.97;;;;;;;;;;4952130;28;99087;-79
2024/01/28 07:44:16;;;;;;;8.00;2.90;;;;;;;;;;4949156;28;99694;-79
2024/01/28 07:46:43;;;;;;;9.25;3.10;;;;;;;;;;4947771;28;99120;-78
2024/01/28 07:49:10;;;;;;;8.13;3.10;;;;;;;;;;4947985;28;99198;-78
2024/01/28 07:51:38;;;;;;;8.38;2.65;;;;;;;;;;4949119;28;98868;-78
2024/01/28 07:54:05;;;;;;;12.40;3.13;;;;;;;;;;4947049;28;99392;-77
2024/01/28 07:56:31;;;;;;;9.02;3.05;;;;;;;;;;4947420;28;98993;-77
2024/01/28 07:58:58;;;;;;;9.73;3.15;;;;;;;;;;4947360;28;99510;-76
2024/01/28 08:01:26;;;;;;;8.70;2.85;;;;;;;;;;4933318;28;99287;-78
2024/01/28 08:03:53;;;;;;;8.80;3.28;;;;;;;;;;4945315;28;98931;-79
2024/01/28 08:06:21;;;;;;;7.95;3.00;;;;;;;;;;4947595;28;99145;-80
2024/01/28 08:08:48;;;;;;;10.63;3.33;;;;;;;;;;4946653;28;98502;-81
2024/01/28 08:11:14;;;;;;;11.18;3.65;;;;;;;;;;4947474;28;98916;-82
2024/01/28 08:13:41;;;;;;;12.13;3.15;;;;;;;;;;4930760;28;100160;-82
2024/01/28 08:16:07;;;;;;;12.55;3.50;;;;;;;;;;4948995;28;98214;-81
2024/01/28 08:18:33;;;;;;;11.23;3.15;;;;;;;;;;4945879;28;99362;-81
2024/01/28 08:21:00;;;;;;;8.35;3.35;;;;;;;;;;4950513;28;99924;-82
2024/01/28 08:23:28;;;;;;;7.05;2.90;;;;;;;;;;4954263;28;99295;-83
2024/01/28 08:25:55;;;;;;;7.13;2.75;;;;;;;;;;4949003;28;99115;-82
2024/01/28 08:28:22;;;;;;;13.13;3.53;;;;;;;;;;4948189;28;98919;-82
2024/01/28 08:30:48;;;;;;;9.13;3.00;;;;;;;;;;4959037;28;98953;-72
2024/01/28 08:33:15;;;;;;;8.73;2.78;;;;;;;;;;4953679;28;99058;-73
2024/01/28 08:35:43;;;;;;;9.10;2.97;;;;;;;;;;4945968;28;98968;-71
2024/01/28 08:38:10;;;;;;;10.40;3.22;;;;;;;;;;4949987;28;98979;-71
2024/01/28 08:40:38;;;;;;;8.73;3.28;;;;;;;;;;4958425;28;98781;-72
2024/01/28 08:43:05;;;;;;;8.45;2.95;;;;;;;;;;4965873;28;98845;-72
2024/01/28 08:45:32;;;;;;;7.72;2.72;;;;;;;;;;4968511;28;99047;-72
2024/01/28 08:47:59;;;;;;;11.50;2.80;;;;;;;;;;4965421;28;99292;-72
2024/01/28 08:50:26;;;;;;;8.27;2.88;;;;;;;;;;4947530;28;100764;-72
2024/01/28 08:52:52;;;;;;;9.82;2.80;;;;;;;;;;4961170;28;100265;-73
2024/01/28 08:55:19;;;;;;;7.97;2.60;;;;;;;;;;4946092;28;98546;-73
2024/01/28 08:57:45;;;;;;;9.48;3.03;;;;;;;;;;4946326;28;98924;-70
2024/01/28 09:00:12;;;;;;;7.85;2.78;;;;;;;;;;4945151;28;100056;-70
2024/01/28 09:02:39;;;;;;;7.03;2.70;;;;;;;;;;4945044;28;98860;-68
2024/01/28 09:05:07;;;;;;;7.32;2.28;;;;;;;;;;4946429;28;99073;-78
2024/01/28 09:07:34;;;;;;;6.93;2.60;;;;;;;;;;4946978;28;100497;-77
2024/01/28 09:10:01;;;;;;;5.65;2.70;;;;;;;;;;4946176;28;100062;-78
2024/01/28 09:12:28;;;;;;;7.00;2.70;;;;;;;;;;4927815;28;100200;-76
2024/01/28 09:14:55;;;;;;;6.20;2.45;;;;;;;;;;4944646;28;98897;-77
2024/01/28 09:17:21;;;;;;;8.77;2.90;;;;;;;;;;4945553;28;100232;-75
2024/01/28 09:19:48;;;;;;;6.22;2.38;;;;;;;;;;4945441;28;100075;-77
2024/01/28 09:22:15;;;;;;;8.48;2.55;;;;;;;;;;4945675;28;98911;-75
2024/01/28 09:24:42;;;;;;;6.80;2.78;;;;;;;;;;4945157;28;100297;-77
2024/01/28 09:27:10;;;;;;;7.03;2.70;;;;;;;;;;4943867;28;102233;-71
2024/01/28 09:29:37;;;;;;;9.77;2.70;;;;;;;;;;4948767;28;98407;-70
2024/01/28 09:32:04;;;;;;;6.43;2.15;;;;;;;;;;4944940;28;99587;-70
2024/01/28 09:34:30;;;;;;;8.27;2.65;;;;;;;;;;4947154;28;105415;-69
2024/01/28 09:36:57;;;;;;;6.32;2.33;;;;;;;;;;4945139;28;104684;-69
2024/01/28 09:39:24;;;;;;;5.53;2.20;;;;;;;;;;4944059;28;101069;-69
2024/01/28 09:41:56;;;;;;;10.13;2.45;;;;;;;;;;4945501;28;98597;-70
2024/01/28 09:44:22;;;;;;;6.60;2.60;;;;;;;;;;4945178;28;100003;-69
2024/01/28 09:46:49;;;;;;;8.52;2.30;;;;;;;;;;4943355;28;100274;-69
2024/01/28 09:49:16;;;;;;;;;;;;;;;;;;4945820;28;98609;-70
2024/01/28 09:51:42;;;;;;;7.90;2.47;;;;;;;;;;4948773;28;119963;-70
2024/01/28 09:54:09;;;;;;;6.07;2.10;;;;;;;;;;4945459;28;98196;-69
2024/01/28 09:56:36;;;;;;;5.15;2.30;;;;;;;;;;4943012;28;98888;-70
2024/01/28 09:59:07;;;;;;;7.57;2.38;;;;;;;;;;4942841;28;99162;-70
2024/01/28 10:01:34;;;;;;;5.60;2.17;;;;;;;;;;4944126;28;99674;-70
2024/01/28 10:04:01;;;;;;;7.18;2.28;;;;;;;;;;4957782;28;100932;-70
2024/01/28 10:06:28;;;;;;;6.30;2.08;;;;;;;;;;4928231;28;99594;-70
2024/01/28 10:08:55;;;;;;;6.53;2.33;;;;;;;;;;4927612;28;98641;-70
2024/01/28 10:11:21;;;;;;;7.88;2.13;;;;;;;;;;4931746;28;99117;-70
2024/01/28 10:13:47;;;;;;;5.65;2.28;;;;;;;;;;4928255;28;98802;-70
2024/01/28 10:16:14;;;;;;;6.57;2.30;;;;;;;;;;4928568;28;99511;-70
2024/01/28 10:18:41;;;;;;;5.40;2.08;;;;;;;;;;4942638;28;98882;-70
2024/01/28 10:21:07;;;;;;;4.78;2.05;;;;;;;;;;4947837;28;98567;-70
2024/01/28 10:23:35;;;;;;;5.15;2.05;;;;;;;;;;4947564;28;100118;-70
2024/01/28 10:26:01;;;;;;;6.03;2.10;;;;;;;;;;4945797;28;100173;-70
2024/01/28 10:28:29;;;;;;;7.22;1.83;;;;;;;;;;4946349;28;98931;-70
2024/01/28 10:30:56;;;;;;;7.63;2.22;;;;;;;;;;4947811;28;98823;-70
2024/01/28 10:33:22;;;;;;;5.40;2.03;;;;;;;;;;4949926;28;100303;-71
2024/01/28 10:35:49;;;;;;;6.30;2.20;;;;;;;;;;4945601;28;100113;-71
2024/01/28 10:38:18;;;;;;;6.65;2.08;;;;;;;;;;4951007;28;100584;-74
2024/01/28 10:40:45;;;;;;;5.35;1.90;;;;;;;;;;4966049;28;99011;-73
2024/01/28 10:43:15;;;;;;;6.30;1.92;;;;;;;;;;4967551;28;100540;-72
2024/01/28 10:45:43;;;;;;;6.03;1.95;;;;;;;;;;4966132;28;99240;-73
2024/01/28 10:48:17;;;;;;;5.68;2.03;;;;;;;;;;4967016;28;99122;-73
2024/01/28 10:50:44;;;;;;;7.05;2.10;;;;;;;;;;4962814;28;99909;-72
2024/01/28 10:53:12;;;;;;;;;;;;;;;;;;4947181;28;99187;-72
2024/01/28 10:55:39;;;;;;;10.25;2.00;;;;;;;;;;4951082;28;113242;-73
2024/01/28 10:58:06;;;;;;;9.23;2.00;;;;;;;;;;4946715;28;99273;-72
2024/01/28 11:00:33;;;;;;;7.88;2.00;;;;;;;;;;4946497;28;99039;-72
2024/01/28 11:03:01;;;;;;;7.15;2.13;;;;;;;;;;4946560;28;99343;-73
2024/01/28 11:05:28;;;;;;;8.15;2.10;;;;;;;;;;4946124;28;99411;-74
2024/01/28 11:07:59;;;;;;;8.88;2.20;;;;;;;;;;4947635;28;98387;-73
2024/01/28 11:10:27;;;;;;;6.93;2.08;;;;;;;;;;4929396;28;99007;-73
2024/01/28 11:12:54;;;;;;;5.95;2.00;;;;;;;;;;4945391;28;99399;-72
2024/01/28 11:15:21;;;;;;;6.43;1.80;;;;;;;;;;4946293;28;99513;-73
2024/01/28 11:17:50;;;;;;;8.70;2.00;;;;;;;;;;4949666;28;99646;-72
2024/01/28 11:20:23;;;;;;;6.07;1.88;;;;;;;;;;4947119;28;98794;-72
2024/01/28 11:22:50;;;;;;;6.45;1.95;;;;;;;;;;4927679;28;100334;-72
2024/01/28 11:25:19;;;;;;;3.97;1.60;;;;;;;;;;4944791;28;99213;-72
2024/01/28 11:27:46;;;;;;;7.75;1.90;;;;;;;;;;4950558;28;98715;-72
2024/01/28 11:30:14;;;;;;;6.50;2.00;;;;;;;;;;4965315;28;99850;-72
2024/01/28 11:32:41;;;;;;;7.70;1.80;;;;;;;;;;4964903;28;105305;-72
2024/01/28 11:35:10;;;;;;;6.68;1.80;;;;;;;;;;4957506;28;98703;-72
2024/01/28 11:37:42;;;;;;;4.88;1.90;;;;;;;;;;4944574;28;99088;-72
2024/01/28 11:40:16;;;;;;;4.43;1.80;;;;;;;;;;4927845;28;101069;-73
2024/01/28 11:42:42;;;;;;;6.18;2.00;;;;;;;;;;4944984;28;100093;-72
2024/01/28 11:45:09;;;;;;;4.80;1.80;;;;;;;;;;4945294;28;99432;-72
2024/01/28 11:47:35;;;;;;;5.82;2.00;;;;;;;;;;4946171;28;100398;-71
2024/01/28 11:50:02;;;;;;;4.95;1.80;;;;;;;;;;4946929;28;98734;-70
2024/01/28 11:52:29;;;;;;;7.10;2.10;;;;;;;;;;4945457;28;99138;-71
2024/01/28 11:54:58;;;;;;;3.67;1.63;;;;;;;;;;4945621;28;99240;-71
2024/01/28 11:57:33;;;;;;;7.53;1.90;;;;;;;;;;4947373;28;98752;-70
2024/01/28 12:00:00;;;;;;;9.52;2.08;;;;;;;;;;4946456;28;100151;-71
2024/01/28 12:02:26;;;;;;;8.07;1.85;;;;;;;;;;4950119;28;99213;-71
2024/01/28 12:04:56;;;;;;;11.07;2.20;;;;;;;;;;4944962;28;101423;-71
2024/01/28 12:07:24;;;;;;;8.00;1.85;;;;;;;;;;4946625;28;98963;-72
2024/01/28 12:09:50;;;;;;;10.50;2.00;;;;;;;;;;4945954;28;99337;-71
2024/01/28 12:12:17;;;;;;;10.82;2.30;;;;;;;;;;4947085;28;99220;-71
2024/01/28 12:14:47;;;;;;;17.60;2.40;;;;;;;;;;4946417;28;99274;-70
2024/01/28 12:17:14;;;;;;;;;;;;;;;;;;4946523;28;98938;-70
2024/01/28 12:19:40;;;;;;;6.53;1.80;;;;;;;;;;4946775;28;124827;-70
2024/01/28 12:22:13;;;;;;;7.88;1.63;;;;;;;;;;4933258;28;98342;-71
2024/01/28 12:24:46;;;;;;;8.95;1.88;;;;;;;;;;4910540;28;101772;-70
2024/01/28 12:27:14;;;;;;;7.50;2.00;;;;;;;;;;4946353;28;98988;-71
2024/01/28 12:29:41;;;;;;;7.82;1.70;;;;;;;;;;4945763;28;101077;-71
2024/01/28 12:32:08;;;;;;;8.25;1.92;;;;;;;;;;4964540;28;99054;-72
2024/01/28 12:34:36;;;;;;;10.90;2.00;;;;;;;;;;4961611;28;98914;-70
2024/01/28 12:37:03;;;;;;;6.47;1.85;;;;;;;;;;4946163;28;99849;-71
2024/01/28 12:39:30;;;;;;;5.22;1.73;;;;;;;;;;4959532;28;100217;-70
2024/01/28 12:41:56;;;;;;;7.25;1.80;;;;;;;;;;4966094;28;98559;-70
2024/01/28 12:44:23;;;;;;;4.65;1.75;;;;;;;;;;4956269;28;99988;-70
2024/01/28 12:46:49;;;;;;;6.80;1.70;;;;;;;;;;4943999;28;97825;-71
2024/01/28 12:49:16;;;;;;;5.80;1.70;;;;;;;;;;4945918;28;98858;-70
2024/01/28 12:51:43;;;;;;;4.97;1.70;;;;;;;;;;4945066;28;99046;-71
2024/01/28 12:54:10;;;;;;;5.40;1.80;;;;;;;;;;4944904;28;99309;-70
2024/01/28 12:56:36;;;;;;;3.88;1.50;;;;;;;;;;4945633;28;100636;-71
2024/01/28 12:59:03;;;;;;;6.82;1.77;;;;;;;;;;4945271;28;100271;-71
2024/01/28 13:01:30;;;;;;;5.63;1.88;;;;;;;;;;4944941;28;98548;-71
2024/01/28 13:03:59;;;;;;;7.30;1.80;;;;;;;;;;4945879;28;99427;-71
2024/01/28 13:06:26;;;;;;;6.10;1.80;;;;;;;;;;4947602;28;100410;-70
2024/01/28 13:08:52;;;;;;;;;;;;;;;;;;4945355;28;98844;-71
2024/01/28 13:11:19;;;;;;;5.38;1.85;;;;;;;;;;4946416;28;122388;-71
2024/01/28 13:13:45;;;;;;;7.20;1.70;;;;;;;;;;4943337;28;98867;-71
2024/01/28 13:16:12;;;;;;;5.80;1.70;;;;;;;;;;4943351;28;99839;-71
2024/01/28 13:18:40;;;;;;;6.68;1.90;;;;;;;;;;4942652;28;99743;-72
2024/01/28 13:21:07;;;;;;;6.68;1.80;;;;;;;;;;4944792;28;99087;-71
2024/01/28 13:23:34;;;;;;;6.72;1.90;;;;;;;;;;4944390;28;100021;-71
2024/01/28 13:26:00;;;;;;;5.40;1.80;;;;;;;;;;4943842;28;99848;-71
2024/01/28 13:28:27;;;;;;;5.32;1.80;;;;;;;;;;4947559;28;99038;-71
2024/01/28 13:30:54;;;;;;;6.72;1.70;;;;;;;;;;4951899;28;99438;-71
2024/01/28 13:33:21;;;;;;;6.30;1.70;;;;;;;;;;4962985;28;99058;-71
2024/01/28 13:35:48;;;;;;;5.03;1.73;;;;;;;;;;4948517;28;98634;-71
2024/01/28 13:38:14;;;;;;;6.18;1.55;;;;;;;;;;4952099;28;99773;-71
2024/01/28 13:40:42;;;;;;;6.07;1.80;;;;;;;;;;4954864;28;98980;-71
2024/01/28 13:43:08;;;;;;;5.40;1.60;;;;;;;;;;4946481;28;99280;-71
2024/01/28 13:45:35;;;;;;;4.78;1.60;;;;;;;;;;4946360;28;98840;-71
2024/01/28 13:48:01;;;;;;;5.47;1.70;;;;;;;;;;4947790;28;99109;-71
2024/01/28 13:50:28;;;;;;;5.63;1.65;;;;;;;;;;4950508;28;99352;-70
2024/01/28 13:52:55;;;;;;;5.78;1.63;;;;;;;;;;4946321;28;98818;-71
2024/01/28 13:55:22;;;;;;;7.13;1.63;;;;;;;;;;4947759;28;99053;-71
2024/01/28 13:57:48;;;;;;;4.38;1.52;;;;;;;;;;4947270;28;100384;-71
2024/01/28 14:00:15;;;;;;;4.80;1.67;;;;;;;;;;4959594;28;97823;-71
2024/01/28 14:02:43;;;;;;;4.38;1.42;;;;;;;;;;4946129;28;98754;-71
2024/01/28 14:05:12;;;;;;;6.05;1.80;;;;;;;;;;4960212;28;99156;-71
2024/01/28 14:07:39;;;;;;;5.68;1.60;;;;;;;;;;4967138;28;99246;-70
2024/01/28 14:10:06;;;;;;;4.63;1.55;;;;;;;;;;4964698;28;99520;-70
2024/01/28 14:12:33;;;;;;;;;;;;;;;;;;4948738;28;98993;-72
2024/01/28 14:14:59;;;;;;;5.65;1.70;;;;;;;;;;4949229;28;113458;-71
2024/01/28 14:17:27;;;;;;;4.65;1.60;;;;;;;;;;4947283;28;99194;-70
2024/01/28 14:19:54;;;;;;;4.68;1.50;;;;;;;;;;4948060;28;98897;-72
2024/01/28 14:22:20;;;;;;;5.18;1.50;;;;;;;;;;4947648;28;98953;-72
2024/01/28 14:24:47;;;;;;;4.72;1.73;;;;;;;;;;4947454;28;98553;-72
2024/01/28 14:27:14;;;;;;;5.32;1.60;;;;;;;;;;4947061;28;98659;-72
2024/01/28 14:29:40;;;;;;;4.78;1.52;;;;;;;;;;4946626;28;98857;-72
2024/01/28 14:32:06;;;;;;;4.40;1.42;;;;;;;;;;4949605;28;99982;-72
2024/01/28 14:34:33;;;;;;;4.10;1.52;;;;;;;;;;4945772;28;100581;-72
2024/01/28 14:37:00;;;;;;;4.43;1.58;;;;;;;;;;4946183;28;100175;-71
2024/01/28 14:39:30;;;;;;;4.93;1.60;;;;;;;;;;4960990;28;98998;-71